Time;durP1;ratioP1;P1;durP2;ratioP2;P2;SDS_P1;SDS_P2;PMS_P1;PMS_P2;Temp;Humidity;BMP_temperature;BMP_pressure;BME280_temperature;BME280_humidity;BME280_pressure;Samples;Min_cycle;Max_cycle;Signal;HPM_P1;HPM_P2
2023/05/03 00:01:00;;;;;;;5.17;2.70;;;;;;;13.97;48.53;94947.16;5069545;28;20212;-82
2023/05/03 00:03:27;;;;;;;7.53;2.53;;;;;;;13.96;48.20;94948.19;5068202;28;20201;-83
2023/05/03 00:05:53;;;;;;;42.23;5.53;;;;;;;13.93;48.04;94954.69;5068589;28;20235;-83
2023/05/03 00:08:20;;;;;;;5.63;2.50;;;;;;;13.86;48.39;94950.59;5068497;28;20198;-82
2023/05/03 00:10:47;;;;;;;2.87;2.50;;;;;;;13.84;47.96;94943.00;5071836;28;20221;-84
2023/05/03 00:13:35;;;;;;;3.73;2.97;;;;;;;13.84;47.90;94952.66;5068558;28;20216;-84
2023/05/03 00:16:05;;;;;;;3.47;2.63;;;;;;;13.80;47.72;94951.50;5069512;28;20197;-83
2023/05/03 00:18:32;;;;;;;11.37;3.03;;;;;;;13.75;47.93;94959.25;5071317;28;20197;-82
2023/05/03 00:21:11;;;;;;;5.60;2.57;;;;;;;13.72;47.85;94944.03;5072967;28;20202;-83
2023/05/03 00:23:38;;;;;;;4.97;2.50;;;;;;;13.78;47.67;94950.97;5071551;28;20235;-82
2023/05/03 00:26:04;;;;;;;9.07;2.73;;;;;;;13.70;47.16;94941.66;5069401;28;20618;-83
2023/05/03 00:28:32;;;;;;;3.90;2.70;;;;;;;13.70;46.77;94956.53;5069743;28;20201;-84
2023/05/03 00:31:07;;;;;;;6.37;2.60;;;;;;;13.58;47.11;94954.75;5071159;28;20596;-83
2023/05/03 00:33:34;;;;;;;6.40;2.60;;;;;;;13.57;47.33;94960.19;5068432;28;20251;-83
2023/05/03 00:36:07;;;;;;;5.70;3.00;;;;;;;13.54;47.10;94955.41;5070321;28;20201;-84
2023/05/03 00:38:34;;;;;;;5.50;2.63;;;;;;;13.54;47.57;94964.03;5070616;28;20228;-83
2023/05/03 00:41:02;;;;;;;5.17;2.77;;;;;;;13.49;47.26;94963.94;5073059;28;20190;-83
2023/05/03 00:43:30;;;;;;;5.50;2.83;;;;;;;13.46;47.73;94964.41;5070343;28;20567;-75
2023/05/03 00:45:58;;;;;;;3.57;2.80;;;;;;;13.40;47.48;94967.91;5068124;28;20201;-75
2023/05/03 00:48:26;;;;;;;5.27;2.53;;;;;;;13.34;47.73;94981.88;5064931;28;20221;-75
2023/05/03 00:50:54;;;;;;;4.07;2.73;;;;;;;13.33;47.62;94975.06;5069316;28;20274;-75
2023/05/03 00:53:21;;;;;;;5.83;2.73;;;;;;;13.16;48.12;94963.69;5068514;28;20255;-75
2023/05/03 00:55:49;;;;;;;3.80;2.83;;;;;;;13.20;48.14;94967.44;5067518;28;20189;-75
2023/05/03 00:58:16;;;;;;;3.50;2.77;;;;;;;13.25;47.96;94969.38;5069305;28;20205;-75
2023/05/03 01:00:43;;;;;;;6.40;2.83;;;;;;;13.22;47.76;94962.03;5069837;28;20285;-75
2023/05/03 01:03:12;;;;;;;4.27;2.97;;;;;;;13.26;47.40;94961.34;5068118;28;20672;-76
2023/05/03 01:05:48;;;;;;;5.83;2.57;;;;;;;13.20;47.46;94951.00;5068129;28;20202;-75
2023/05/03 01:08:23;;;;;;;8.50;2.70;;;;;;;13.19;47.62;94952.03;5069418;28;20220;-76
2023/05/03 01:10:59;;;;;;;3.60;2.57;;;;;;;13.16;47.40;94942.03;5067511;28;20212;-76
2023/05/03 01:13:35;;;;;;;4.53;3.10;;;;;;;13.09;47.71;94939.53;5065480;28;20193;-75
2023/05/03 01:16:09;;;;;;;3.97;2.73;;;;;;;13.08;47.57;94937.94;5066507;28;20197;-77
2023/05/03 01:18:40;;;;;;;5.20;2.87;;;;;;;13.01;47.84;94938.03;5067524;28;20222;-76
2023/05/03 01:21:09;;;;;;;6.03;2.77;;;;;;;13.00;48.11;94933.03;5069327;28;20193;-75
2023/05/03 01:23:42;;;;;;;4.87;3.00;;;;;;;12.89;48.13;94918.97;5066341;28;20201;-75
2023/05/03 01:26:20;;;;;;;7.23;2.87;;;;;;;12.88;48.18;94919.16;5066692;28;20203;-76
2023/05/03 01:28:47;;;;;;;6.27;2.80;;;;;;;12.90;48.47;94923.13;5064132;28;20699;-75
2023/05/03 01:31:21;;;;;;;6.57;3.20;;;;;;;12.92;48.37;94917.72;5068477;28;20213;-75
2023/05/03 01:33:57;;;;;;;5.23;3.10;;;;;;;12.95;48.68;94915.44;5066749;28;20197;-75
2023/05/03 01:36:31;;;;;;;5.93;2.60;;;;;;;12.99;47.94;94913.16;5065793;28;20200;-75
2023/05/03 01:38:58;;;;;;;5.20;2.93;;;;;;;12.91;48.27;94919.53;5066700;28;20244;-75
2023/05/03 01:41:28;;;;;;;4.57;3.20;;;;;;;12.87;48.33;94920.22;5067611;28;20193;-76
2023/05/03 01:43:56;;;;;;;4.53;2.70;;;;;;;12.95;48.47;94919.88;5069002;28;20276;-75
2023/05/03 01:46:23;;;;;;;5.70;2.73;;;;;;;12.87;48.67;94920.22;5067046;28;20596;-76
2023/05/03 01:48:50;;;;;;;4.13;2.97;;;;;;;12.93;48.36;94917.47;5066226;28;20244;-76
2023/05/03 01:51:16;;;;;;;3.13;2.63;;;;;;;12.87;48.52;94913.16;5069345;28;20217;-76
2023/05/03 01:53:43;;;;;;;5.17;2.80;;;;;;;12.86;48.80;94905.56;5067979;28;20202;-76
2023/05/03 01:56:10;;;;;;;3.60;2.63;;;;;;;12.82;48.64;94907.81;5067078;28;20208;-75
2023/05/03 01:58:38;;;;;;;3.80;2.90;;;;;;;12.77;48.87;94904.31;5066899;28;20668;-75
2023/05/03 02:01:06;;;;;;;6.13;2.93;;;;;;;12.79;49.37;94899.66;5069517;28;20201;-75
2023/05/03 02:03:33;;;;;;;4.13;2.97;;;;;;;12.77;49.12;94894.66;5066245;28;20194;-76
2023/05/03 02:06:00;;;;;;;3.83;2.80;;;;;;;12.75;48.56;94890.69;5066373;28;20201;-75
2023/05/03 02:08:27;;;;;;;4.67;2.97;;;;;;;12.71;49.19;94887.75;5067256;28;20300;-75
2023/05/03 02:10:54;;;;;;;3.53;2.93;;;;;;;12.66;49.43;94889.44;5068721;28;20197;-75
2023/05/03 02:13:21;;;;;;;3.93;2.90;;;;;;;12.54;49.80;94876.38;5065002;28;20200;-76
2023/05/03 02:15:49;;;;;;;5.47;2.90;;;;;;;12.47;49.85;94889.50;5066105;28;20643;-75
2023/05/03 02:18:17;;;;;;;5.00;2.90;;;;;;;12.41;49.87;94869.53;5067735;28;20205;-75
2023/05/03 02:20:45;;;;;;;5.53;3.20;;;;;;;12.27;50.68;94857.72;5068111;28;20668;-76
2023/05/03 02:23:12;;;;;;;3.23;2.87;;;;;;;12.21;50.57;94876.84;5067007;28;20224;-76
2023/05/03 02:25:39;;;;;;;8.13;2.90;;;;;;;12.17;51.03;94870.53;5066423;28;20647;-76
2023/05/03 02:28:06;;;;;;;6.43;3.20;;;;;;;12.18;50.80;94877.31;5066508;28;20813;-76
2023/05/03 02:30:33;;;;;;;9.33;3.00;;;;;;;12.26;51.08;94879.63;5066252;28;20225;-76
2023/05/03 02:33:01;;;;;;;10.53;3.27;;;;;;;12.31;50.85;94873.72;5065077;28;20687;-77
2023/05/03 02:35:28;;;;;;;3.30;2.70;;;;;;;12.41;50.50;94876.56;5068040;28;20197;-84
2023/05/03 02:37:55;;;;;;;5.13;3.27;;;;;;;12.32;50.75;94875.31;5070859;28;20206;-83
2023/05/03 02:40:22;;;;;;;3.87;3.00;;;;;;;12.28;50.99;94881.97;5068848;28;20255;-83
2023/05/03 02:42:49;;;;;;;4.63;2.93;;;;;;;12.28;50.89;94881.97;5069149;28;20272;-83
2023/05/03 02:45:16;;;;;;;5.23;2.83;;;;;;;12.34;50.99;94894.94;5069342;28;20209;-83
2023/05/03 02:47:43;;;;;;;5.70;3.23;;;;;;;12.45;50.74;94903.78;5069694;28;20229;-83
2023/05/03 02:50:11;;;;;;;3.23;2.80;;;;;;;12.39;50.99;94899.47;5068163;28;20197;-83
2023/05/03 02:52:38;;;;;;;7.23;2.87;;;;;;;12.46;50.86;94900.19;5068276;28;20968;-83
2023/05/03 02:55:06;;;;;;;7.43;3.20;;;;;;;12.35;50.62;94886.06;5068883;28;20656;-83
2023/05/03 02:57:32;;;;;;;4.17;3.00;;;;;;;12.38;50.96;94887.47;5069915;28;20255;-83
2023/05/03 02:59:59;;;;;;;4.57;2.90;;;;;;;12.43;50.68;94892.78;5069183;28;20205;-82
2023/05/03 03:02:26;;;;;;;5.93;2.87;;;;;;;12.40;50.79;94894.03;5068745;28;20590;-82
2023/05/03 03:04:53;;;;;;;6.20;2.83;;;;;;;12.42;50.90;94894.59;5069312;28;20197;-82
2023/05/03 03:07:21;;;;;;;5.30;2.90;;;;;;;12.36;50.89;94902.50;5069663;28;20201;-82
2023/05/03 03:09:48;;;;;;;5.37;3.10;;;;;;;12.35;51.01;94896.50;5066809;28;20201;-75
2023/05/03 03:12:15;;;;;;;9.67;3.10;;;;;;;12.29;51.25;94901.81;5065252;28;20210;-75
2023/05/03 03:14:44;;;;;;;4.03;2.70;;;;;;;12.25;51.78;94891.03;5067774;28;20201;-75
2023/05/03 03:17:11;;;;;;;3.87;2.77;;;;;;;12.06;52.06;94881.69;5066387;28;20694;-76
2023/05/03 03:19:38;;;;;;;7.10;3.33;;;;;;;12.14;51.83;94898.81;5064962;28;20205;-76
2023/05/03 03:22:06;;;;;;;5.47;2.93;;;;;;;12.08;51.99;94897.91;5065814;28;20198;-82
2023/05/03 03:24:34;;;;;;;6.53;3.03;;;;;;;12.16;52.28;94900.19;5068412;28;20280;-83
2023/05/03 03:27:01;;;;;;;6.77;3.10;;;;;;;12.12;52.21;94898.25;5070018;28;20299;-84
2023/05/03 03:29:30;;;;;;;9.33;3.43;;;;;;;12.17;52.12;94899.19;5066197;28;20193;-76
2023/05/03 03:31:57;;;;;;;7.80;3.57;;;;;;;12.27;51.77;94915.06;5064263;28;20229;-77
2023/05/03 03:34:24;;;;;;;5.80;3.20;;;;;;;12.29;51.85;94920.88;5067864;28;20189;-76
2023/05/03 03:36:50;;;;;;;5.27;2.67;;;;;;;12.28;52.38;94910.66;5065287;28;20194;-82
2023/05/03 03:39:17;;;;;;;5.33;2.93;;;;;;;12.26;52.11;94921.31;5065879;28;20193;-76
2023/05/03 03:41:45;;;;;;;5.30;3.17;;;;;;;12.27;51.86;94925.47;5061491;28;20197;-75
2023/05/03 03:44:12;;;;;;;9.50;3.33;;;;;;;12.18;52.30;94919.00;5067842;28;20205;-75
2023/05/03 03:46:39;;;;;;;7.53;3.37;;;;;;;12.14;52.32;94920.47;5065353;28;20731;-75
2023/05/03 03:49:06;;;;;;;3.90;3.07;;;;;;;12.06;52.13;94925.97;5064920;28;20311;-76
2023/05/03 03:51:33;;;;;;;4.93;2.90;;;;;;;12.01;52.31;94915.41;5068311;28;20220;-75
2023/05/03 03:54:00;;;;;;;9.17;3.10;;;;;;;12.04;52.42;94922.78;5070896;28;20204;-75
2023/05/03 03:56:27;;;;;;;3.70;2.93;;;;;;;12.04;52.52;94933.22;5069590;28;20197;-75
2023/05/03 03:58:55;;;;;;;4.33;3.17;;;;;;;12.00;52.49;94923.47;5069762;28;20286;-75
2023/05/03 04:01:25;;;;;;;8.23;3.30;;;;;;;11.89;52.58;94914.56;5070655;28;20205;-75
2023/05/03 04:03:52;;;;;;;5.40;3.50;;;;;;;11.94;52.50;94935.53;5070444;28;20197;-76
2023/05/03 04:06:19;;;;;;;7.97;4.00;;;;;;;11.95;52.61;94926.69;5069111;28;20198;-76
2023/05/03 04:08:45;;;;;;;7.70;3.00;;;;;;;11.93;52.54;94932.16;5069000;28;20212;-76
2023/05/03 04:11:12;;;;;;;6.87;3.67;;;;;;;11.96;52.52;94941.31;5071734;28;20204;-76
2023/05/03 04:13:39;;;;;;;5.87;3.40;;;;;;;11.97;52.77;94940.31;5068310;28;20228;-76
2023/05/03 04:16:08;;;;;;;7.53;4.07;;;;;;;11.90;52.50;94931.78;5069802;28;20215;-84
2023/05/03 04:18:35;;;;;;;4.30;3.40;;;;;;;12.01;52.69;94941.47;5071903;28;20296;-81
2023/05/03 04:21:02;;;;;;;8.17;3.30;;;;;;;12.03;52.43;94943.84;5073868;28;20268;-84
2023/05/03 04:23:29;;;;;;;4.70;3.30;;;;;;;11.98;52.96;94957.53;5071664;28;20656;-83
2023/05/03 04:25:56;;;;;;;9.17;3.40;;;;;;;12.01;52.39;94977.13;5068193;28;20193;-75
2023/05/03 04:28:23;;;;;;;6.67;2.97;;;;;;;12.07;52.79;94963.22;5068382;28;20225;-76
2023/05/03 04:30:50;;;;;;;5.47;3.57;;;;;;;11.90;52.50;94981.25;5070737;28;20652;-75
2023/05/03 04:33:19;;;;;;;6.03;3.03;;;;;;;12.01;53.00;94998.75;5069362;28;20387;-83
2023/05/03 04:35:49;;;;;;;4.83;3.37;;;;;;;12.09;52.96;95005.50;5067591;28;20205;-84
2023/05/03 04:38:17;;;;;;;10.57;3.47;;;;;;;12.08;52.67;95004.72;5069377;28;20197;-85
2023/05/03 04:40:44;;;;;;;8.87;3.83;;;;;;;12.06;53.58;94998.94;5072293;28;20236;-85
2023/05/03 04:43:11;;;;;;;7.07;3.50;;;;;;;12.07;53.05;95010.91;5070709;28;20202;-76
2023/05/03 04:45:38;;;;;;;8.67;3.33;;;;;;;12.07;53.13;95010.91;5067067;28;20307;-75
2023/05/03 04:48:05;;;;;;;5.97;3.47;;;;;;;12.08;53.35;95014.31;5068194;28;20229;-76
2023/05/03 04:50:34;;;;;;;7.13;3.70;;;;;;;12.00;53.31;95020.63;5067666;28;20197;-76
2023/05/03 04:53:01;;;;;;;7.10;3.83;;;;;;;11.99;53.80;95018.22;5067130;28;20221;-75
2023/05/03 04:55:28;;;;;;;7.00;3.67;;;;;;;11.93;53.62;95006.88;5066142;28;20201;-78
2023/05/03 04:57:55;;;;;;;6.63;3.90;;;;;;;12.06;53.49;95016.38;5069222;28;20713;-76
2023/05/03 05:00:22;;;;;;;6.93;3.23;;;;;;;12.14;53.60;95016.88;5066180;28;20243;-75
2023/05/03 05:02:49;;;;;;;5.27;3.47;;;;;;;12.14;53.76;95021.28;5065669;28;20258;-75
2023/05/03 05:05:16;;;;;;;7.43;4.00;;;;;;;12.18;53.95;95025.06;5064483;28;20302;-76
2023/05/03 05:07:45;;;;;;;6.50;3.70;;;;;;;12.16;53.91;95024.44;5065900;28;20250;-77
2023/05/03 05:10:13;;;;;;;8.43;4.27;;;;;;;12.20;54.25;95038.66;5068008;28;20194;-75
2023/05/03 05:12:40;;;;;;;7.90;3.47;;;;;;;12.18;54.91;95045.91;5067539;28;20217;-76
2023/05/03 05:15:08;;;;;;;11.70;3.77;;;;;;;12.12;56.57;95050.13;5066835;28;21152;-76
2023/05/03 05:17:35;;;;;;;7.57;3.90;;;;;;;12.00;58.46;95036.25;5069435;28;20221;-76
2023/05/03 05:20:02;;;;;;;10.07;4.00;;;;;;;12.03;60.28;95046.25;5066842;28;20205;-76
2023/05/03 05:22:29;;;;;;;9.90;4.00;;;;;;;11.97;62.84;95043.72;5067661;28;20204;-76
2023/05/03 05:24:57;;;;;;;5.13;3.83;;;;;;;12.04;62.35;95047.03;5067306;28;20201;-76
2023/05/03 05:27:24;;;;;;;8.57;4.03;;;;;;;11.99;61.38;95047.69;5068948;28;20201;-76
2023/05/03 05:29:51;;;;;;;11.67;3.90;;;;;;;11.91;63.18;95040.97;5067598;28;20204;-75
2023/05/03 05:32:18;;;;;;;4.57;3.53;;;;;;;11.89;63.04;95047.38;5065446;28;20228;-76
2023/05/03 05:34:51;;;;;;;11.37;5.40;;;;;;;11.86;62.54;95043.41;5068136;28;20198;-76
2023/05/03 05:37:18;;;;;;;6.83;3.87;;;;;;;11.85;63.29;95046.22;5069209;28;20193;-77
2023/05/03 05:39:45;;;;;;;5.13;4.10;;;;;;;11.95;61.72;95056.94;5065749;28;20232;-76
2023/05/03 05:42:13;;;;;;;6.03;3.67;;;;;;;12.01;61.56;95053.47;5066720;28;20723;-77
2023/05/03 05:44:40;;;;;;;7.70;4.50;;;;;;;12.04;61.83;95047.03;5067226;28;20204;-77
2023/05/03 05:47:07;;;;;;;4.37;3.77;;;;;;;12.10;60.69;95054.78;5061420;28;20205;-76
2023/05/03 05:49:34;;;;;;;6.17;3.80;;;;;;;12.13;59.38;95040.50;5066202;28;20194;-76
2023/05/03 05:52:00;;;;;;;8.33;3.80;;;;;;;12.19;59.55;95057.88;5066361;28;20209;-76
2023/05/03 05:54:27;;;;;;;7.73;4.30;;;;;;;12.15;59.62;95049.69;5069456;28;20209;-76
2023/05/03 05:56:54;;;;;;;6.93;4.27;;;;;;;12.20;59.21;95059.50;5065989;28;20194;-77
2023/05/03 05:59:23;;;;;;;7.03;4.30;;;;;;;12.15;59.62;95056.75;5066819;28;20194;-76
2023/05/03 06:01:50;;;;;;;8.83;3.93;;;;;;;12.20;59.29;95049.88;5066563;28;20204;-76
2023/05/03 06:04:16;;;;;;;6.30;4.00;;;;;;;12.21;59.42;95061.88;5067902;28;20288;-76
2023/05/03 06:06:43;;;;;;;8.83;4.07;;;;;;;12.20;58.78;95059.50;5067035;28;20202;-76
2023/05/03 06:09:11;;;;;;;8.03;4.27;;;;;;;12.15;59.52;95056.75;5068262;28;20197;-76
2023/05/03 06:11:37;;;;;;;5.60;3.83;;;;;;;12.22;60.13;95054.84;5067534;28;21826;-77
2023/05/03 06:14:08;;;;;;;5.70;3.57;;;;;;;12.14;60.71;95057.75;5067560;28;20251;-76
2023/05/03 06:16:36;;;;;;;7.10;3.87;;;;;;;12.11;61.14;95050.38;5064474;28;20193;-77
2023/05/03 06:19:03;;;;;;;8.53;3.93;;;;;;;12.16;61.39;95053.13;5066133;28;20266;-76
2023/05/03 06:21:30;;;;;;;8.93;3.50;;;;;;;12.20;62.55;95049.88;5066173;28;20198;-76
2023/05/03 06:23:57;;;;;;;5.10;4.10;;;;;;;12.27;63.05;95049.78;5067211;28;20271;-77
2023/05/03 06:26:24;;;;;;;5.33;3.80;;;;;;;12.22;64.51;95039.22;5064968;28;20285;-77
2023/05/03 06:28:51;;;;;;;6.60;4.10;;;;;;;12.46;64.09;95059.19;5065262;28;20197;-76
2023/05/03 06:31:18;;;;;;;6.13;4.30;;;;;;;12.57;63.91;95047.22;5068055;28;20196;-77
2023/05/03 06:33:46;;;;;;;8.80;4.40;;;;;;;12.65;64.35;95044.28;5067239;28;20234;-76
2023/05/03 06:36:13;;;;;;;6.87;4.30;;;;;;;12.62;62.22;95029.88;5063077;28;20197;-76
2023/05/03 06:38:40;;;;;;;6.10;4.00;;;;;;;12.66;61.61;95033.66;5065634;28;20240;-77
2023/05/03 06:41:10;;;;;;;6.40;4.37;;;;;;;12.59;62.58;95017.28;5069466;28;21274;-77
2023/05/03 06:43:37;;;;;;;7.33;4.37;;;;;;;12.66;62.08;95020.63;5064834;28;20720;-75
2023/05/03 06:46:03;;;;;;;6.40;4.30;;;;;;;12.69;61.75;95019.38;5064712;28;20230;-76
2023/05/03 06:48:30;;;;;;;8.20;4.17;;;;;;;12.72;62.40;95017.13;5064270;28;20228;-76
2023/05/03 06:50:58;;;;;;;10.73;4.50;;;;;;;12.62;61.17;95021.25;5066987;28;20288;-76
2023/05/03 06:53:25;;;;;;;6.33;4.10;;;;;;;12.56;61.63;95012.53;5065669;28;20241;-76
2023/05/03 06:55:52;;;;;;;6.60;3.60;;;;;;;12.50;62.31;95008.19;5064786;28;20197;-77
2023/05/03 06:58:19;;;;;;;6.27;3.90;;;;;;;12.67;63.75;95005.78;5066789;28;21773;-78
2023/05/03 07:00:46;;;;;;;7.57;3.63;;;;;;;12.70;63.16;95002.72;5069206;28;20197;-77
2023/05/03 07:03:13;;;;;;;4.93;4.00;;;;;;;12.73;62.13;95016.09;5067500;28;20281;-78
2023/05/03 07:05:40;;;;;;;6.10;3.73;;;;;;;12.83;61.83;95012.97;5065975;28;20201;-77
2023/05/03 07:08:09;;;;;;;5.80;3.67;;;;;;;12.91;59.91;95008.22;5067288;28;20205;-77
2023/05/03 07:10:36;;;;;;;7.67;3.77;;;;;;;12.90;60.67;94995.41;5067259;28;20202;-77
2023/05/03 07:13:02;;;;;;;10.50;4.27;;;;;;;13.05;59.98;95004.38;5066355;28;20205;-77
2023/05/03 07:15:30;;;;;;;8.20;4.40;;;;;;;13.07;60.22;95002.38;5065849;28;20656;-77
2023/05/03 07:17:56;;;;;;;9.00;3.80;;;;;;;13.19;58.80;94999.78;5067155;28;20672;-78
2023/05/03 07:20:23;;;;;;;7.20;3.87;;;;;;;13.26;59.83;95000.50;5066995;28;20208;-77
2023/05/03 07:22:50;;;;;;;10.20;4.30;;;;;;;13.22;59.16;94995.94;5066046;28;20208;-78
2023/05/03 07:25:19;;;;;;;7.80;4.03;;;;;;;13.29;59.30;95000.03;5066328;28;20201;-78
2023/05/03 07:27:46;;;;;;;4.70;3.67;;;;;;;13.35;58.92;95000.94;5068119;28;20205;-77
2023/05/03 07:30:13;;;;;;;5.47;4.17;;;;;;;13.45;58.56;95007.19;5066593;28;20679;-78
2023/05/03 07:32:40;;;;;;;6.57;3.70;;;;;;;13.50;58.83;95030.03;5065685;28;20201;-78
2023/05/03 07:35:08;;;;;;;10.30;4.13;;;;;;;13.60;58.87;95027.63;5066146;28;20204;-77
2023/05/03 07:37:37;;;;;;;9.57;3.90;;;;;;;13.65;59.21;95027.72;5068233;28;20262;-78
2023/05/03 07:40:06;;;;;;;8.87;3.97;;;;;;;13.69;59.21;95025.47;5066340;28;20746;-78
2023/05/03 07:42:34;;;;;;;7.20;4.03;;;;;;;13.72;59.37;95014.56;5065507;28;20194;-78
2023/05/03 07:45:01;;;;;;;8.80;4.03;;;;;;;13.80;58.67;95004.56;5066961;28;20205;-80
2023/05/03 07:47:28;;;;;;;6.10;3.87;;;;;;;13.93;58.88;95009.56;5068193;28;20275;-79
2023/05/03 07:49:55;;;;;;;7.10;4.03;;;;;;;13.97;58.94;95020.34;5066395;28;20599;-79
2023/05/03 07:52:22;;;;;;;7.17;4.00;;;;;;;14.02;57.82;95021.25;5063901;28;20193;-78
2023/05/03 07:54:50;;;;;;;8.83;3.87;;;;;;;14.08;57.88;95032.63;5063925;28;20221;-77
2023/05/03 07:57:19;;;;;;;9.20;4.20;;;;;;;14.13;57.76;95024.88;5066949;28;20195;-78
2023/05/03 07:59:47;;;;;;;4.90;3.50;;;;;;;14.21;57.44;95016.66;5064636;28;20288;-77
2023/05/03 08:02:13;;;;;;;4.57;3.77;;;;;;;14.08;57.57;95003.84;5066149;28;20190;-77
2023/05/03 08:04:40;;;;;;;6.73;4.07;;;;;;;14.21;57.46;95019.28;5067766;28;20224;-77
2023/05/03 08:07:07;;;;;;;4.80;3.80;;;;;;;14.27;58.09;95014.94;5066701;28;20205;-78
2023/05/03 08:09:35;;;;;;;5.27;3.83;;;;;;;14.29;57.39;95031.97;5066450;28;20193;-79
2023/05/03 08:12:03;;;;;;;8.53;4.30;;;;;;;14.25;57.74;95036.09;5066305;28;20202;-77
2023/05/03 08:14:30;;;;;;;11.27;4.37;;;;;;;14.13;58.27;95002.16;5067311;28;20213;-78
2023/05/03 08:16:59;;;;;;;13.57;4.47;;;;;;;14.40;59.43;95030.41;5065800;28;20558;-77
2023/05/03 08:19:29;;;;;;;12.70;4.70;;;;;;;14.26;58.80;94980.16;5067012;28;20285;-77
2023/05/03 08:21:57;;;;;;;5.90;4.33;;;;;;;14.77;58.20;95029.78;5065513;28;20656;-76
2023/05/03 08:24:25;;;;;;;6.37;4.00;;;;;;;14.84;58.45;95034.09;5066064;28;20205;-76
2023/05/03 08:26:52;;;;;;;6.50;4.13;;;;;;;14.86;58.31;95034.69;5065274;28;20197;-77
2023/05/03 08:29:31;;;;;;;7.37;4.40;;;;;;;14.72;58.71;95026.28;5065713;28;20276;-77
2023/05/03 08:32:01;;;;;;;7.73;4.30;;;;;;;14.94;58.70;95039.53;5061784;28;20205;-79
2023/05/03 08:34:28;;;;;;;6.37;4.07;;;;;;;14.89;58.61;95028.97;5065907;28;20247;-77
2023/05/03 08:36:55;;;;;;;5.07;4.17;;;;;;;15.04;57.62;95037.88;5065958;28;20680;-77
2023/05/03 08:39:23;;;;;;;6.70;4.03;;;;;;;15.13;58.53;95027.81;5070046;28;20193;-79
2023/05/03 08:41:50;;;;;;;7.40;4.40;;;;;;;15.19;57.87;95034.72;5070661;28;20301;-81
2023/05/03 08:44:22;;;;;;;6.70;3.87;;;;;;;15.30;57.90;95028.63;5069923;28;20212;-82
2023/05/03 08:46:49;;;;;;;8.43;4.00;;;;;;;15.27;58.27;95027.28;5069672;28;20255;-81
2023/05/03 08:49:17;;;;;;;7.57;4.50;;;;;;;15.38;58.52;95023.00;5071157;28;20225;-81
2023/05/03 08:51:46;;;;;;;6.17;4.33;;;;;;;15.33;58.40;95023.69;5067675;28;20270;-81
2023/05/03 08:54:13;;;;;;;5.60;4.13;;;;;;;15.52;57.81;95026.13;5068317;28;20210;-80
2023/05/03 08:56:42;;;;;;;7.87;4.10;;;;;;;15.62;58.15;95029.69;5070568;28;20201;-81
2023/05/03 08:59:10;;;;;;;6.40;4.30;;;;;;;15.64;56.92;95032.84;5072138;28;20208;-83
2023/05/03 09:01:38;;;;;;;7.27;4.13;;;;;;;15.65;56.91;95036.25;5067877;28;20209;-80
2023/05/03 09:04:06;;;;;;;8.23;5.03;;;;;;;15.59;56.44;95040.63;5073031;28;20205;-80
2023/05/03 09:06:35;;;;;;;9.00;4.70;;;;;;;15.67;56.50;95044.69;5072136;28;20197;-81
2023/05/03 09:09:06;;;;;;;6.93;4.30;;;;;;;15.69;56.50;95030.31;5071825;28;20197;-81
2023/05/03 09:11:34;;;;;;;6.43;4.60;;;;;;;15.93;56.11;95041.38;5072866;28;20189;-81
2023/05/03 09:14:09;;;;;;;7.97;4.50;;;;;;;15.93;55.96;95033.53;5071727;28;20294;-82
2023/05/03 09:16:35;;;;;;;7.83;4.70;;;;;;;15.96;56.21;95027.03;5071475;28;20714;-80
2023/05/03 09:19:07;;;;;;;6.83;4.30;;;;;;;16.12;55.29;95019.13;5069465;28;20194;-77
2023/05/03 09:21:36;;;;;;;5.10;4.17;;;;;;;16.22;55.25;95002.72;5066125;28;20193;-77
2023/05/03 09:24:12;;;;;;;8.00;4.70;;;;;;;16.54;55.06;95013.31;5069760;28;20198;-77
2023/05/03 09:26:39;;;;;;;6.60;4.90;;;;;;;16.82;54.30;95015.75;5067485;28;20197;-77
2023/05/03 09:29:06;;;;;;;6.87;4.53;;;;;;;16.92;52.92;95021.88;5067973;28;20208;-78
2023/05/03 09:31:34;;;;;;;8.30;4.97;;;;;;;16.77;53.34;95013.06;5067691;28;20220;-76
2023/05/03 09:34:03;;;;;;;6.67;4.80;;;;;;;16.76;54.13;95014.13;5069183;28;20231;-79
2023/05/03 09:36:46;;;;;;;9.37;4.90;;;;;;;16.72;53.82;95002.50;5068793;28;20279;-79
2023/05/03 09:39:16;;;;;;;7.03;4.50;;;;;;;16.78;54.58;94997.06;5068899;28;20273;-79
2023/05/03 09:41:43;;;;;;;9.20;4.77;;;;;;;16.93;54.52;94993.81;5067662;28;20209;-78
2023/05/03 09:44:10;;;;;;;15.87;7.43;;;;;;;17.14;53.40;94990.31;5069477;28;20193;-77
2023/05/03 09:46:37;;;;;;;13.98;5.60;;;;;;;17.30;52.67;94985.97;5066935;28;20209;-78
2023/05/03 09:49:04;;;;;;;10.23;5.00;;;;;;;17.42;52.68;94986.59;5067013;28;20268;-78
2023/05/03 09:51:31;;;;;;;8.67;4.63;;;;;;;17.55;52.70;94988.81;5069339;28;20201;-78
2023/05/03 09:54:00;;;;;;;6.17;4.40;;;;;;;17.68;51.39;94991.00;5069299;28;20217;-75
2023/05/03 09:56:27;;;;;;;5.07;4.15;;;;;;;17.91;51.31;94990.63;5067771;28;20201;-76
2023/05/03 09:58:54;;;;;;;5.32;3.90;;;;;;;18.14;51.47;94981.53;5068541;28;20209;-78
2023/05/03 10:01:23;;;;;;;5.78;4.57;;;;;;;18.46;49.92;94981.41;5067600;28;20221;-76
2023/05/03 10:03:53;;;;;;;5.60;4.35;;;;;;;18.63;49.75;94977.53;5069984;28;20375;-81
2023/05/03 10:06:25;;;;;;;13.48;4.90;;;;;;;18.74;50.00;94970.44;5070153;28;20205;-82
2023/05/03 10:09:04;;;;;;;10.35;5.07;;;;;;;18.87;48.49;94977.06;5067171;28;20198;-80
2023/05/03 10:11:34;;;;;;;6.38;4.57;;;;;;;18.76;48.82;94970.97;5069410;28;20200;-81
2023/05/03 10:14:01;;;;;;;6.85;4.32;;;;;;;18.70;49.23;94967.53;5070497;28;20226;-82
2023/05/03 10:16:32;;;;;;;9.40;5.10;;;;;;;18.82;47.82;94975.19;5069948;28;20263;-81
2023/05/03 10:19:09;;;;;;;11.15;4.68;;;;;;;18.91;49.08;94970.19;5070553;28;20200;-80
2023/05/03 10:21:48;;;;;;;8.68;5.32;;;;;;;19.20;49.08;94977.34;5074016;28;20285;-79
2023/05/03 10:24:17;;;;;;;12.13;4.82;;;;;;;19.49;47.46;94955.75;5073914;28;20209;-79
2023/05/03 10:26:46;;;;;;;4.28;3.78;;;;;;;19.83;46.84;94953.31;5071811;28;20193;-80
2023/05/03 10:30:01;;;;;;;8.65;6.20;;;;;;;19.88;46.44;94945.38;5070147;28;20287;-81
2023/05/03 10:32:33;;;;;;;8.93;5.50;;;;;;;19.64;46.21;94929.34;5071142;28;20198;-81
2023/05/03 10:35:02;;;;;;;8.98;5.20;;;;;;;19.47;46.08;94934.13;5071973;28;20217;-82
2023/05/03 10:37:28;;;;;;;5.70;3.97;;;;;;;19.47;47.59;94934.94;5071416;28;20642;-79
2023/05/03 10:40:09;;;;;;;8.80;5.70;;;;;;;19.52;47.85;94932.28;5074938;28;20194;-82
2023/05/03 10:42:37;;;;;;;9.05;4.05;;;;;;;19.53;47.93;94922.53;5072729;28;20335;-83
2023/05/03 10:45:06;;;;;;;7.40;4.20;;;;;;;19.60;48.14;94934.38;5071293;28;20205;-80
2023/05/03 10:47:33;;;;;;;6.82;3.85;;;;;;;19.56;47.39;94935.19;5074441;28;20772;-80
2023/05/03 10:50:25;;;;;;;6.93;4.20;;;;;;;19.46;47.83;94932.53;5066545;28;20198;-80
2023/05/03 10:52:52;;;;;;;9.80;5.68;;;;;;;19.46;48.28;94932.53;5066916;28;20193;-82
2023/05/03 10:55:23;;;;;;;6.72;4.20;;;;;;;19.39;48.61;94917.00;5070436;28;20229;-79
2023/05/03 10:57:54;;;;;;;5.35;3.95;;;;;;;19.31;49.03;94912.22;5072649;28;20262;-84
2023/05/03 11:00:26;;;;;;;11.45;8.70;;;;;;;19.35;47.62;94926.47;5064643;28;20750;-76
2023/05/03 11:03:35;;;;;;;4.43;3.47;;;;;;;19.13;48.74;94925.97;5062881;28;20193;-77
2023/05/03 11:06:03;;;;;;;12.00;3.70;;;;;;;18.92;49.62;94932.28;5056095;28;20280;-76
2023/05/03 11:08:36;;;;;;;8.65;3.88;;;;;;;18.85;49.41;94914.09;5065683;28;20201;-78
2023/05/03 11:11:08;;;;;;;7.10;3.60;;;;;;;18.76;50.27;94917.53;5067030;28;20196;-77
2023/05/03 11:13:37;;;;;;;8.73;3.92;;;;;;;18.57;50.32;94894.31;5061760;22;20812;-81
2023/05/03 11:16:04;;;;;;;6.25;4.10;;;;;;;18.60;50.68;94916.69;5045883;28;20193;-75
2023/05/03 11:18:32;;;;;;;7.13;4.05;;;;;;;18.67;50.31;94915.38;5068906;28;20217;-76
2023/05/03 11:20:59;;;;;;;6.10;4.13;;;;;;;18.85;50.49;94913.28;5074821;28;20200;-77
2023/05/03 11:23:27;;;;;;;4.72;3.90;;;;;;;19.04;50.78;94909.91;5070172;28;20217;-77
2023/05/03 11:25:55;;;;;;;6.70;4.03;;;;;;;19.00;50.74;94900.13;5064922;28;20205;-78
2023/05/03 11:28:23;;;;;;;6.50;4.00;;;;;;;19.05;51.13;94908.81;5071537;28;20236;-76
2023/05/03 11:30:50;;;;;;;4.75;3.90;;;;;;;19.09;50.99;94901.97;5077273;28;20615;-78
2023/05/03 11:33:17;;;;;;;4.35;3.60;;;;;;;19.05;51.54;94871.94;5070379;28;20197;-78
2023/05/03 11:35:44;;;;;;;6.85;4.20;;;;;;;19.19;50.99;94888.78;5067098;28;20217;-77
2023/05/03 11:38:14;;;;;;;4.82;3.70;;;;;;;19.29;49.73;94898.53;5072831;28;20830;-75